Time;durP1;ratioP1;P1;durP2;ratioP2;P2;SDS_P1;SDS_P2;PMS_P1;PMS_P2;Temp;Humidity;BMP_temperature;BMP_pressure;BME280_temperature;BME280_humidity;BME280_pressure;Samples;Min_cycle;Max_cycle;Signal;HPM_P1;HPM_P2
2023/06/22 00:01:42;;;;;;;20.88;15.38;;;;;;;30.50;64.23;100848.13;5057452;28;69959;-49
2023/06/22 00:04:13;;;;;;;23.02;15.38;;;;;;;30.44;66.44;100838.19;5058451;28;65456;-43
2023/06/22 00:06:45;;;;;;;23.60;14.40;;;;;;;29.64;67.10;100706.06;5057651;28;69068;-43
2023/06/22 00:09:16;;;;;;;16.47;12.43;;;;;;;30.43;68.19;100836.53;5055678;28;65292;-42
2023/06/22 00:11:47;;;;;;;18.30;11.67;;;;;;;30.48;67.33;100840.25;5056700;28;70572;-44
2023/06/22 00:14:18;;;;;;;26.02;12.35;;;;;;;30.44;68.32;100841.72;5062085;28;65386;-43
2023/06/22 00:16:54;;;;;;;20.77;13.53;;;;;;;30.59;68.24;100841.41;5054704;28;70056;-45
2023/06/22 00:19:25;;;;;;;29.80;13.73;;;;;;;30.75;67.88;100852.75;5057784;28;66356;-43
2023/06/22 00:22:00;;;;;;;34.90;13.25;;;;;;;30.83;67.49;100841.66;5050772;28;70034;-43
2023/06/22 00:24:31;;;;;;;24.40;13.32;;;;;;;30.88;67.09;100837.25;5060775;27;66051;-44
2023/06/22 00:27:02;;;;;;;21.63;13.83;;;;;;;30.91;66.91;100839.50;5055356;28;70449;-44
2023/06/22 00:29:34;;;;;;;18.30;12.80;;;;;;;30.98;66.07;100834.06;5038953;28;66690;-44
2023/06/22 00:32:06;;;;;;;22.40;13.52;;;;;;;31.06;66.52;100841.03;5055411;28;70128;-45
2023/06/22 00:34:37;;;;;;;26.00;13.68;;;;;;;31.10;67.14;100840.38;5058990;28;66131;-42
2023/06/22 00:37:08;;;;;;;25.25;12.80;;;;;;;31.15;66.63;100840.56;5058551;28;70013;-42
2023/06/22 00:39:40;;;;;;;29.25;13.25;;;;;;;31.23;67.24;100849.44;5060797;28;65915;-43
2023/06/22 00:42:11;;;;;;;17.85;11.13;;;;;;;31.14;64.63;100828.03;5061083;28;70108;-42
2023/06/22 00:44:43;;;;;;;11.57;9.95;;;;;;;31.30;63.42;100855.63;5042533;28;64774;-43
2023/06/22 00:47:18;;;;;;;9.88;9.02;;;;;;;30.74;63.18;100757.16;5048460;28;70332;-42
2023/06/22 00:49:53;;;;;;;9.95;9.10;;;;;;;31.37;62.94;100869.94;5055640;28;66161;-44
2023/06/22 00:52:29;;;;;;;10.38;9.38;;;;;;;31.34;62.73;100870.38;5039963;28;69486;-43
2023/06/22 00:55:02;;;;;;;9.55;8.57;;;;;;;31.41;62.13;100871.19;5041565;28;65414;-43
2023/06/22 00:57:33;;;;;;;10.23;9.25;;;;;;;31.47;62.18;100875.69;5058573;28;70313;-42
2023/06/22 01:00:09;;;;;;;13.17;9.93;;;;;;;31.50;62.06;100880.66;5059898;28;66337;-43
2023/06/22 01:02:41;;;;;;;13.45;8.82;;;;;;;31.52;61.67;100878.56;5059723;28;70553;-43
2023/06/22 01:05:17;;;;;;;10.20;8.10;;;;;;;31.54;61.42;100873.75;5055642;28;66417;-43
2023/06/22 01:07:55;;;;;;;9.35;8.27;;;;;;;31.56;61.60;100868.09;5038477;28;69876;-42
2023/06/22 01:10:26;;;;;;;9.13;8.02;;;;;;;31.59;61.02;100884.75;5052752;28;67043;-41
2023/06/22 01:13:29;;;;;;;10.45;8.73;;;;;;;31.04;61.37;100800.66;5058394;28;70258;-43
2023/06/22 01:16:18;;;;;;;9.10;8.23;;;;;;;31.23;61.19;100827.75;5030428;28;66601;-44
2023/06/22 01:18:52;;;;;;;8.68;7.97;;;;;;;30.49;60.51;100711.13;5053071;28;69525;-45
2023/06/22 01:21:28;;;;;;;9.23;7.22;;;;;;;30.59;60.97;100730.41;5040091;28;66686;-41
2023/06/22 01:24:16;;;;;;;8.77;8.07;;;;;;;31.70;60.89;100912.16;5054268;28;70513;-43
2023/06/22 01:26:55;;;;;;;7.90;7.40;;;;;;;31.73;60.68;100900.88;5052709;28;66122;-41
2023/06/22 01:29:29;;;;;;;8.85;7.45;;;;;;;31.60;60.63;100878.28;5056532;28;70612;-44
2023/06/22 01:32:03;;;;;;;8.52;7.90;;;;;;;31.69;60.78;100900.50;5058812;28;66688;-42
2023/06/22 01:34:40;;;;;;;8.02;7.43;;;;;;;31.81;60.53;100908.69;5058719;28;70394;-43
2023/06/22 01:37:13;;;;;;;7.93;7.38;;;;;;;30.96;60.38;100771.13;5038892;28;65424;-42
2023/06/22 01:39:45;;;;;;;8.00;7.43;;;;;;;31.80;60.38;100907.06;5030354;28;69464;-42
2023/06/22 01:42:17;;;;;;;7.63;6.93;;;;;;;31.73;60.21;100890.00;5054844;28;67016;-45
2023/06/22 01:44:48;;;;;;;;;;;;;;;31.57;61.58;100919.41;5034425;28;70459;-43
2023/06/22 01:47:24;;;;;;;12.35;7.53;;;;;;;31.55;60.43;100867.28;5059000;28;66207;-46
2023/06/22 01:49:56;;;;;;;7.70;7.10;;;;;;;31.86;60.29;100903.44;5033999;28;70734;-46
2023/06/22 01:52:27;;;;;;;9.90;7.13;;;;;;;31.84;60.15;100897.41;5056666;28;65691;-46
2023/06/22 01:54:58;;;;;;;8.23;7.40;;;;;;;31.94;60.27;100907.75;5055699;28;68493;-45
2023/06/22 01:57:30;;;;;;;8.27;7.67;;;;;;;31.99;60.10;100916.88;5045120;28;65933;-45
2023/06/22 02:00:12;;;;;;;7.75;7.10;;;;;;;30.94;59.87;100740.72;5038464;28;70166;-46
2023/06/22 02:02:59;;;;;;;7.85;7.25;;;;;;;32.01;59.96;100911.22;5055953;28;65225;-46
2023/06/22 02:05:48;;;;;;;7.45;6.82;;;;;;;31.40;59.83;100809.91;5032910;28;70231;-46
2023/06/22 02:08:28;;;;;;;7.43;6.90;;;;;;;31.63;59.67;100836.31;5055606;28;66131;-42
2023/06/22 02:11:03;;;;;;;6.87;6.40;;;;;;;31.50;59.43;100807.47;5038470;28;68390;-43
2023/06/22 02:13:35;;;;;;;7.78;7.18;;;;;;;32.18;59.61;100914.13;5035608;28;64816;-44
2023/06/22 02:16:06;;;;;;;8.65;7.78;;;;;;;31.52;59.49;100807.25;5039470;28;70246;-46
2023/06/22 02:18:40;;;;;;;7.28;6.75;;;;;;;32.20;59.35;100898.44;5053165;28;66840;-44
2023/06/22 02:21:11;;;;;;;7.18;6.68;;;;;;;32.24;59.54;100911.34;5055650;28;70222;-46
2023/06/22 02:23:43;;;;;;;7.97;7.38;;;;;;;32.15;59.44;100876.59;5053955;28;66211;-45
2023/06/22 02:26:17;;;;;;;7.88;6.78;;;;;;;32.23;59.10;100909.69;5056725;28;70899;-43
2023/06/22 02:28:49;;;;;;;7.88;7.13;;;;;;;31.92;59.19;100834.72;5051056;28;66770;-43
2023/06/22 02:31:20;;;;;;;7.55;6.95;;;;;;;32.29;59.23;100894.38;5056329;28;70311;-44
2023/06/22 02:33:51;;;;;;;12.63;7.55;;;;;;;32.26;58.96;100878.53;5054276;28;65400;-45
2023/06/22 02:36:23;;;;;;;7.13;6.45;;;;;;;32.38;59.01;100894.88;5058888;28;69310;-46
2023/06/22 02:38:58;;;;;;;9.07;7.07;;;;;;;31.85;58.94;100806.84;5037488;28;67053;-45
2023/06/22 02:41:30;;;;;;;6.50;6.00;;;;;;;32.40;59.04;100896.31;5058980;28;70013;-43
2023/06/22 02:44:01;;;;;;;6.90;6.43;;;;;;;32.42;59.02;100888.75;5057824;28;66633;-46
2023/06/22 02:46:32;;;;;;;7.07;6.60;;;;;;;32.41;58.91;100880.84;5057608;28;70359;-45
2023/06/22 02:49:04;;;;;;;7.32;6.38;;;;;;;32.51;58.81;100891.16;5047910;28;65831;-46
2023/06/22 02:51:35;;;;;;;6.63;6.00;;;;;;;32.54;58.62;100883.41;5043628;28;70123;-42
2023/06/22 02:54:07;;;;;;;7.45;6.57;;;;;;;32.58;58.82;100886.47;5044431;28;65494;-43
2023/06/22 02:56:40;;;;;;;7.18;6.68;;;;;;;32.53;58.37;100872.75;5042560;28;70677;-43
2023/06/22 02:59:12;;;;;;;6.90;6.40;;;;;;;32.53;58.48;100856.47;5059928;28;66587;-45
2023/06/22 03:01:44;;;;;;;6.88;6.28;;;;;;;32.67;58.40;100876.94;5049526;28;69729;-44
2023/06/22 03:04:25;;;;;;;;;;;;;;;32.40;59.18;100871.88;5045228;28;65483;-45
2023/06/22 03:07:00;;;;;;;7.05;6.45;;;;;;;32.69;58.47;100869.38;5041291;28;70732;-49
2023/06/22 03:09:33;;;;;;;7.00;6.38;;;;;;;32.74;58.17;100866.81;5041572;28;66162;-44
2023/06/22 03:12:04;;;;;;;6.40;6.00;;;;;;;32.73;57.99;100854.25;5046330;28;69333;-44
2023/06/22 03:14:44;;;;;;;7.15;6.65;;;;;;;32.81;58.18;100864.78;5028741;28;65764;-46
2023/06/22 03:17:16;;;;;;;7.90;6.57;;;;;;;32.82;58.17;100854.75;5045735;28;70402;-46
2023/06/22 03:19:48;;;;;;;6.87;6.27;;;;;;;32.86;58.12;100856.75;5066295;28;66152;-45
2023/06/22 03:22:19;;;;;;;6.97;6.28;;;;;;;32.88;58.02;100849.22;5060724;28;69878;-45
2023/06/22 03:24:51;;;;;;;5.97;5.57;;;;;;;32.73;57.75;100813.50;5031670;28;66307;-44
2023/06/22 03:27:22;;;;;;;6.30;5.90;;;;;;;32.92;57.84;100844.13;5063612;28;69186;-44
2023/06/22 03:29:53;;;;;;;6.70;6.13;;;;;;;32.97;57.75;100838.00;5054499;28;66091;-45
2023/06/22 03:32:27;;;;;;;7.10;6.40;;;;;;;32.96;57.81;100839.03;5059193;28;69163;-45
2023/06/22 03:35:00;;;;;;;6.38;6.00;;;;;;;33.02;57.61;100843.59;5043132;28;66165;-46
2023/06/22 03:37:32;;;;;;;6.78;6.22;;;;;;;32.72;57.73;100801.00;5044058;28;69825;-45
2023/06/22 03:40:05;;;;;;;6.97;6.38;;;;;;;32.85;57.76;100811.66;5062693;28;66134;-44
2023/06/22 03:42:37;;;;;;;6.70;6.05;;;;;;;33.06;57.84;100845.59;5042991;28;70441;-47
2023/06/22 03:45:08;;;;;;;6.40;6.00;;;;;;;33.06;57.86;100837.44;5044886;28;66068;-45
2023/06/22 03:47:39;;;;;;;;;;;;;;;32.77;58.50;100836.44;5062086;28;69463;-43
2023/06/22 03:50:11;;;;;;;6.45;5.85;;;;;;;33.06;57.86;100833.88;5044130;28;65984;-44
2023/06/22 03:52:42;;;;;;;;;;;;;;;32.79;58.54;100831.63;5070635;28;70667;-45
2023/06/22 03:55:13;;;;;;;6.22;5.60;;;;;;;33.08;57.69;100827.16;5055962;28;66660;-45
2023/06/22 03:57:45;;;;;;;6.82;6.20;;;;;;;33.11;57.55;100826.69;5059880;28;70531;-44
2023/06/22 04:00:16;;;;;;;7.03;5.88;;;;;;;33.13;57.44;100829.19;5059630;28;66589;-44
2023/06/22 04:02:47;;;;;;;6.72;6.22;;;;;;;33.13;57.44;100821.03;5051816;28;69719;-45
2023/06/22 04:05:19;;;;;;;7.38;6.78;;;;;;;33.11;57.41;100812.28;5043147;28;66252;-46
2023/06/22 04:07:51;;;;;;;7.10;6.22;;;;;;;33.13;57.30;100812.88;5065144;27;70107;-47
2023/06/22 04:10:22;;;;;;;7.15;6.53;;;;;;;33.19;57.27;100817.34;5059781;28;66432;-45
2023/06/22 04:12:54;;;;;;;7.05;6.43;;;;;;;33.19;57.24;100800.22;5066162;28;70275;-43
2023/06/22 04:15:25;;;;;;;9.38;7.05;;;;;;;32.58;57.33;100731.69;5060554;28;66207;-44
2023/06/22 04:17:57;;;;;;;7.18;6.55;;;;;;;33.26;57.30;100801.72;5060509;28;69978;-45
2023/06/22 04:20:28;;;;;;;;;;;;;;;32.96;58.05;100806.44;5057732;28;66066;-45
2023/06/22 04:22:59;;;;;;;6.50;6.10;;;;;;;33.19;57.14;100794.78;5061903;28;70632;-45
2023/06/22 04:25:31;;;;;;;5.72;5.35;;;;;;;33.27;57.33;100808.00;5066962;28;65926;-41
2023/06/22 04:28:04;;;;;;;8.15;6.25;;;;;;;33.23;57.05;100794.03;5064616;28;69684;-44
2023/06/22 04:30:35;;;;;;;6.80;6.30;;;;;;;33.16;57.15;100771.63;5064441;28;66506;-44
2023/06/22 04:33:06;;;;;;;6.93;6.38;;;;;;;33.31;57.11;100793.69;5067289;28;70105;-45
2023/06/22 04:35:41;;;;;;;6.35;5.80;;;;;;;33.32;57.06;100783.63;5064470;28;66948;-45
2023/06/22 04:38:13;;;;;;;6.78;6.20;;;;;;;33.34;57.17;100781.50;5059388;28;70334;-45
2023/06/22 04:40:44;;;;;;;7.22;6.63;;;;;;;33.41;57.05;100792.25;5042424;28;65565;-43
2023/06/22 04:43:16;;;;;;;12.18;6.20;;;;;;;33.40;57.28;100780.53;5057003;28;69172;-46
2023/06/22 04:45:52;;;;;;;6.95;6.35;;;;;;;33.41;57.06;100774.06;5066072;28;65182;-47
2023/06/22 04:48:23;;;;;;;6.40;5.82;;;;;;;33.41;56.87;100765.06;5061686;28;70840;-44
2023/06/22 04:50:54;;;;;;;6.88;6.22;;;;;;;33.34;57.22;100755.13;5060656;28;66408;-46
2023/06/22 04:53:29;;;;;;;6.72;6.22;;;;;;;33.36;57.15;100739.41;5059991;28;70059;-45
2023/06/22 04:56:00;;;;;;;5.97;5.57;;;;;;;33.50;56.98;100758.19;5060396;28;66119;-42
2023/06/22 04:58:32;;;;;;;6.53;5.45;;;;;;;33.50;56.75;100758.19;5053007;28;70297;-45
2023/06/22 05:01:04;;;;;;;5.57;5.10;;;;;;;33.53;56.50;100757.72;5059596;28;66281;-46
2023/06/22 05:03:36;;;;;;;;;;;;;;;33.23;57.30;100747.84;5060924;28;69416;-45
2023/06/22 05:06:08;;;;;;;6.50;6.07;;;;;;;33.53;56.98;100746.84;5058431;28;66461;-44
2023/06/22 05:08:39;;;;;;;6.93;5.90;;;;;;;33.55;56.93;100739.28;5062307;28;69486;-47
2023/06/22 05:11:11;;;;;;;6.95;6.35;;;;;;;33.58;56.73;100722.47;5061628;28;65353;-47
2023/06/22 05:13:42;;;;;;;5.95;5.45;;;;;;;33.64;56.64;100723.41;5066599;28;69804;-47
2023/06/22 05:16:13;;;;;;;7.03;5.15;;;;;;;33.64;56.52;100724.22;5054770;28;65972;-47
2023/06/22 05:18:45;;;;;;;5.43;5.03;;;;;;;33.56;56.72;100711.00;5060365;28;70420;-46
2023/06/22 05:21:16;;;;;;;5.97;5.43;;;;;;;33.67;56.50;100721.00;5061481;28;65315;-46
2023/06/22 05:23:48;;;;;;;5.68;5.18;;;;;;;33.64;56.42;100721.50;5057969;28;69662;-47
2023/06/22 05:26:20;;;;;;;5.72;5.22;;;;;;;33.56;56.35;100702.84;5062092;28;66260;-44
2023/06/22 05:28:52;;;;;;;6.13;5.63;;;;;;;33.71;56.15;100705.88;5059210;28;70060;-53
2023/06/22 05:31:23;;;;;;;6.65;6.18;;;;;;;33.76;56.37;100708.66;5059580;28;66133;-44
2023/06/22 05:33:55;;;;;;;6.78;6.28;;;;;;;33.81;56.09;100699.78;5062403;28;69597;-47
2023/06/22 05:36:26;;;;;;;;;;;;;;;33.53;56.85;100685.13;5060802;28;66453;-46
2023/06/22 05:38:58;;;;;;;6.55;6.05;;;;;;;33.75;56.07;100668.94;5057678;28;69821;-45
2023/06/22 05:41:29;;;;;;;;;;;;;;;33.57;56.61;100671.84;5055841;28;66560;-46
2023/06/22 05:44:00;;;;;;;7.47;6.97;;;;;;;33.73;56.35;100646.59;5061459;28;70396;-43
2023/06/22 05:46:32;;;;;;;7.20;6.57;;;;;;;33.76;56.12;100643.38;5059576;28;66687;-44
2023/06/22 05:49:03;;;;;;;6.95;6.55;;;;;;;33.88;56.08;100656.91;5057358;28;70342;-44
2023/06/22 05:51:34;;;;;;;7.57;6.75;;;;;;;33.88;56.37;100645.19;5063263;28;66032;-45
2023/06/22 05:54:06;;;;;;;7.75;7.25;;;;;;;33.98;56.06;100657.06;5060008;28;70054;-43
2023/06/22 05:56:37;;;;;;;7.22;6.72;;;;;;;34.02;55.96;100660.16;5056760;28;66628;-45
2023/06/22 05:59:09;;;;;;;6.95;6.18;;;;;;;34.03;56.30;100651.72;5061367;28;69948;-44
2023/06/22 06:01:40;;;;;;;7.50;7.00;;;;;;;33.91;56.06;100625.69;5059158;28;65283;-46
2023/06/22 06:04:11;;;;;;;6.47;5.75;;;;;;;34.06;55.82;100631.38;5061603;28;69455;-45
2023/06/22 06:06:43;;;;;;;;;;;;;;;33.83;56.05;100632.34;5059302;28;66873;-46
2023/06/22 06:09:14;;;;;;;5.93;5.45;;;;;;;34.08;55.55;100633.88;5058347;28;69175;-44
2023/06/22 06:11:46;;;;;;;7.40;6.80;;;;;;;33.89;55.60;100585.09;5057091;28;66500;-46
2023/06/22 06:14:17;;;;;;;6.28;5.82;;;;;;;34.21;55.51;100642.53;5058304;28;70898;-46
2023/06/22 06:16:50;;;;;;;6.90;6.28;;;;;;;33.68;55.58;100537.69;5058185;28;66034;-46
2023/06/22 06:19:21;;;;;;;7.55;6.80;;;;;;;34.29;55.79;100624.91;5055900;28;71257;-45
2023/06/22 06:21:52;;;;;;;7.07;6.67;;;;;;;34.04;55.10;100584.50;5056917;28;66613;-46
2023/06/22 06:24:23;;;;;;;6.57;5.95;;;;;;;34.29;55.61;100618.66;5060647;28;69008;-45
2023/06/22 06:26:55;;;;;;;10.85;5.80;;;;;;;34.40;55.13;100632.16;5064103;28;66466;-44
2023/06/22 06:29:25;;;;;;;;;;;;;;;34.16;55.51;100630.72;5064357;28;70398;-43
2023/06/22 06:31:56;;;;;;;6.45;5.85;;;;;;;34.37;54.79;100610.06;5061880;28;65599;-46
2023/06/22 06:34:28;;;;;;;9.82;6.22;;;;;;;34.48;54.96;100622.75;5060184;28;69822;-44
2023/06/22 06:36:59;;;;;;;6.78;6.28;;;;;;;34.52;54.79;100618.47;5061139;28;65735;-45
2023/06/22 06:39:30;;;;;;;7.03;6.50;;;;;;;34.59;54.72;100624.56;5060914;28;70577;-46
2023/06/22 06:42:02;;;;;;;7.28;6.60;;;;;;;34.63;54.57;100620.28;5061154;28;65732;-47
2023/06/22 06:44:33;;;;;;;6.97;6.45;;;;;;;34.67;54.61;100615.13;5060736;28;68858;-43
2023/06/22 06:47:05;;;;;;;7.20;6.60;;;;;;;34.69;54.89;100602.91;5058633;28;67457;-44
2023/06/22 06:49:36;;;;;;;7.88;7.05;;;;;;;34.74;54.69;100604.03;5060126;28;70127;-45
2023/06/22 06:52:08;;;;;;;7.22;6.18;;;;;;;34.74;54.46;100593.13;5061499;28;67021;-43
2023/06/22 06:54:38;;;;;;;;;;;;;;;34.56;54.49;100589.66;5060542;28;70613;-44
2023/06/22 06:57:13;;;;;;;6.32;5.93;;;;;;;34.84;54.38;100582.38;5058300;28;67956;-45
2023/06/22 06:59:44;;;;;;;7.10;6.43;;;;;;;34.90;53.85;100584.06;5058811;28;70105;-44
2023/06/22 07:02:16;;;;;;;6.13;5.78;;;;;;;34.95;53.76;100584.13;5061924;28;66046;-45
2023/06/22 07:04:48;;;;;;;6.95;6.43;;;;;;;34.88;53.76;100569.88;5061919;28;70467;-44
2023/06/22 07:07:20;;;;;;;7.18;6.63;;;;;;;35.03;54.02;100580.97;5060110;28;66488;-45
2023/06/22 07:09:51;;;;;;;12.15;6.80;;;;;;;35.03;53.85;100569.25;5061549;28;70098;-46
2023/06/22 07:12:22;;;;;;;7.60;6.30;;;;;;;35.06;53.54;100558.66;5061645;28;65194;-47
2023/06/22 07:14:54;;;;;;;6.95;6.20;;;;;;;35.09;53.68;100558.16;5059004;28;69341;-45
2023/06/22 07:17:25;;;;;;;6.55;6.03;;;;;;;35.16;53.26;100552.50;5061414;28;65471;-45
2023/06/22 07:19:57;;;;;;;6.80;6.30;;;;;;;35.20;53.69;100553.63;5041731;28;69853;-46
2023/06/22 07:22:28;;;;;;;6.30;5.90;;;;;;;34.96;53.70;100498.56;5039015;28;65647;-46
2023/06/22 07:24:59;;;;;;;6.82;6.28;;;;;;;35.06;52.95;100520.50;5041254;28;69231;-46
2023/06/22 07:27:35;;;;;;;7.05;6.35;;;;;;;35.28;53.01;100544.16;5043839;28;65997;-44
2023/06/22 07:30:07;;;;;;;6.72;6.32;;;;;;;35.33;52.96;100541.50;5040524;28;70426;-45
2023/06/22 07:32:40;;;;;;;6.82;6.32;;;;;;;35.34;53.25;100534.94;5040930;28;65637;-46
2023/06/22 07:35:11;;;;;;;7.07;6.00;;;;;;;35.35;52.50;100522.94;5036458;28;70441;-45
2023/06/22 07:37:43;;;;;;;6.90;6.30;;;;;;;35.36;52.74;100521.88;5040971;28;66136;-46
2023/06/22 07:40:13;;;;;;;;;;;;;;;35.09;52.58;100516.44;5041287;28;69638;-46
2023/06/22 07:42:47;;;;;;;6.18;5.70;;;;;;;35.28;52.53;100489.63;5039475;28;66157;-45
2023/06/22 07:45:19;;;;;;;6.30;5.80;;;;;;;35.37;52.77;100493.50;5039982;28;70392;-44
2023/06/22 07:47:51;;;;;;;6.15;5.63;;;;;;;35.13;52.32;100450.25;5035776;28;66560;-45
2023/06/22 07:50:22;;;;;;;6.40;5.88;;;;;;;35.32;52.25;100485.28;5039520;28;69260;-46
2023/06/22 07:52:53;;;;;;;5.93;5.50;;;;;;;35.32;52.12;100467.00;5040712;28;66463;-46
2023/06/22 07:55:24;;;;;;;5.70;5.30;;;;;;;35.46;52.13;100480.22;5036924;28;70115;-44
2023/06/22 07:57:58;;;;;;;5.75;5.25;;;;;;;35.40;51.91;100470.34;5040915;28;65260;-46
2023/06/22 08:00:29;;;;;;;5.40;5.00;;;;;;;35.47;52.10;100482.69;5039831;28;69962;-44
2023/06/22 08:03:03;;;;;;;5.32;5.03;;;;;;;35.47;52.50;100465.50;5038723;28;65999;-46
2023/06/22 08:05:34;;;;;;;5.45;4.95;;;;;;;35.49;52.54;100455.94;5039045;28;70648;-46
2023/06/22 08:08:06;;;;;;;6.07;5.57;;;;;;;35.49;52.48;100460.59;5040068;28;65711;-45
2023/06/22 08:10:37;;;;;;;;;;;;;;;35.23;52.73;100459.59;5033984;28;68384;-46
2023/06/22 08:13:10;;;;;;;5.63;5.13;;;;;;;35.35;52.38;100438.41;5035488;28;66290;-44
2023/06/22 08:15:41;;;;;;;5.32;4.82;;;;;;;35.48;52.08;100446.13;5036936;28;70075;-45
2023/06/22 08:18:12;;;;;;;5.55;5.05;;;;;;;35.53;52.05;100453.53;5044730;28;65151;-46
2023/06/22 08:20:44;;;;;;;5.43;5.00;;;;;;;35.51;52.33;100442.88;5060951;28;70057;-47
2023/06/22 08:23:15;;;;;;;7.82;5.00;;;;;;;35.51;51.92;100448.34;5067096;28;65278;-47
2023/06/22 08:25:47;;;;;;;;;;;;;;;35.26;52.67;100448.16;5065520;28;69815;-47
2023/06/22 08:28:19;;;;;;;6.78;4.88;;;;;;;35.46;51.94;100442.84;5053797;28;66708;-44
2023/06/22 08:30:50;;;;;;;5.55;5.15;;;;;;;35.50;51.92;100449.44;5059137;28;69845;-44
2023/06/22 08:33:28;;;;;;;5.25;4.85;;;;;;;35.54;52.52;100447.81;5042983;28;66059;-48
2023/06/22 08:36:00;;;;;;;5.57;5.03;;;;;;;35.55;51.90;100445.91;5060466;28;70104;-43
2023/06/22 08:38:31;;;;;;;7.45;5.07;;;;;;;35.54;51.70;100430.63;5058993;28;66217;-45
2023/06/22 08:41:02;;;;;;;6.30;4.70;;;;;;;35.53;51.78;100442.63;5060151;28;69260;-46
2023/06/22 08:43:34;;;;;;;6.75;5.00;;;;;;;35.52;52.46;100438.25;5056408;28;65368;-45
2023/06/22 08:46:05;;;;;;;4.47;4.07;;;;;;;35.49;52.36;100425.94;5059366;28;70219;-49
2023/06/22 08:48:37;;;;;;;5.53;5.03;;;;;;;35.54;51.94;100433.34;5061248;28;66240;-47
2023/06/22 08:51:08;;;;;;;5.20;4.70;;;;;;;35.55;52.30;100429.53;5058239;28;69893;-45
2023/06/22 08:53:39;;;;;;;5.17;4.30;;;;;;;35.48;52.32;100431.69;5060430;28;66688;-46
2023/06/22 08:56:10;;;;;;;5.13;4.63;;;;;;;35.58;52.31;100435.34;5058592;28;69962;-46
2023/06/22 08:58:42;;;;;;;9.65;4.80;;;;;;;35.57;51.80;100450.03;5055719;28;66969;-44
2023/06/22 09:01:15;;;;;;;5.63;4.93;;;;;;;35.56;52.06;100442.94;5060528;28;69945;-46
2023/06/22 09:03:54;;;;;;;4.88;4.47;;;;;;;35.57;51.85;100433.66;5060927;28;66663;-43
2023/06/22 09:06:26;;;;;;;5.38;4.88;;;;;;;35.56;51.96;100444.88;5055008;28;69813;-45
2023/06/22 09:08:59;;;;;;;5.88;4.28;;;;;;;35.57;52.67;100433.66;5054558;28;66435;-45
2023/06/22 09:11:30;;;;;;;4.65;4.25;;;;;;;35.61;52.49;100438.59;5040781;28;70017;-47
2023/06/22 09:14:03;;;;;;;4.88;4.47;;;;;;;35.57;52.78;100444.59;5059213;28;66343;-44
2023/06/22 09:16:35;;;;;;;7.88;4.70;;;;;;;35.60;52.33;100440.50;5059187;28;70749;-47
2023/06/22 09:19:06;;;;;;;5.80;4.53;;;;;;;35.60;52.67;100442.44;5057670;28;66918;-47
2023/06/22 09:21:37;;;;;;;;;;;;;;;35.31;52.57;100443.56;5058621;28;70386;-47
2023/06/22 09:24:08;;;;;;;7.45;4.97;;;;;;;35.56;52.67;100447.59;5057628;28;66571;-45
2023/06/22 09:26:40;;;;;;;4.90;4.50;;;;;;;35.59;52.04;100444.34;5060024;28;70017;-46
2023/06/22 09:29:11;;;;;;;4.57;4.25;;;;;;;35.54;52.56;100444.28;5060488;28;65974;-47
2023/06/22 09:31:44;;;;;;;6.43;4.50;;;;;;;35.54;52.30;100445.09;5058233;28;70151;-47
2023/06/22 09:34:15;;;;;;;5.60;5.10;;;;;;;35.54;52.65;100445.09;5055934;28;66313;-46
2023/06/22 09:36:49;;;;;;;5.43;5.03;;;;;;;35.53;52.69;100440.72;5054971;28;69840;-46
2023/06/22 09:39:20;;;;;;;6.45;5.22;;;;;;;35.57;52.88;100433.66;5058938;28;66420;-48
2023/06/22 09:41:51;;;;;;;5.13;4.65;;;;;;;35.36;52.75;100415.53;5059561;28;70096;-43
2023/06/22 09:44:22;;;;;;;5.22;4.78;;;;;;;35.52;52.96;100444.53;5059456;28;66082;-45
2023/06/22 09:46:54;;;;;;;5.25;4.63;;;;;;;35.53;52.85;100454.38;5059462;28;69302;-45
2023/06/22 09:49:25;;;;;;;4.90;4.50;;;;;;;35.51;53.03;100450.25;5059929;28;67470;-46
2023/06/22 09:52:16;;;;;;;5.65;4.97;;;;;;;35.54;52.38;100450.53;5058884;28;69383;-46
2023/06/22 09:54:48;;;;;;;6.10;5.53;;;;;;;35.52;52.81;100450.00;5060992;28;66377;-45
2023/06/22 09:57:19;;;;;;;5.18;4.68;;;;;;;35.55;52.51;100451.34;5057776;28;69607;-44
2023/06/22 09:59:50;;;;;;;5.47;4.93;;;;;;;35.51;52.59;100440.16;5072528;28;65528;-45
2023/06/22 10:02:22;;;;;;;5.03;4.60;;;;;;;35.45;53.04;100430.31;5052643;28;69469;-45
2023/06/22 10:04:53;;;;;;;7.38;6.05;;;;;;;35.38;52.89;100440.59;5061279;28;66550;-45
2023/06/22 10:07:25;;;;;;;12.93;5.88;;;;;;;35.38;55.04;100437.88;5058029;28;69621;-44
2023/06/22 10:09:56;;;;;;;;;;;;;;;35.17;56.13;100445.09;5059898;28;65906;-45
2023/06/22 10:12:28;;;;;;;5.82;5.32;;;;;;;35.38;56.11;100453.41;5058991;28;69763;-46
2023/06/22 10:14:59;;;;;;;;;;;;;;;35.13;57.04;100461.16;5061169;28;65632;-44
2023/06/22 10:17:31;;;;;;;;;;;;;;;35.08;57.04;100469.28;5057351;28;69783;-45
2023/06/22 10:20:12;;;;;;;11.73;6.17;;;;;;;35.31;56.54;100467.28;5057087;28;66704;-45
2023/06/22 10:22:45;;;;;;;8.20;6.10;;;;;;;35.30;56.74;100465.63;5059018;28;70511;-48
2023/06/22 10:25:16;;;;;;;8.35;5.43;;;;;;;35.30;56.61;100474.66;5038682;28;66149;-43
2023/06/22 10:27:47;;;;;;;7.35;5.60;;;;;;;35.09;57.15;100446.38;5057683;28;69922;-45
2023/06/22 10:30:18;;;;;;;12.57;5.43;;;;;;;35.22;57.83;100479.75;5056866;28;65912;-42
2023/06/22 10:32:50;;;;;;;11.30;6.13;;;;;;;35.26;58.14;100489.06;5057551;28;69733;-45
2023/06/22 10:35:22;;;;;;;11.85;6.13;;;;;;;35.26;58.83;100489.06;5057792;28;65706;-44
2023/06/22 10:37:52;;;;;;;;;;;;;;;35.08;59.38;100479.38;5057851;28;69909;-45
2023/06/22 10:40:23;;;;;;;7.55;5.68;;;;;;;35.37;57.27;100477.16;5063523;28;67479;-46
2023/06/22 10:42:55;;;;;;;8.45;5.88;;;;;;;35.36;57.51;100464.59;5061486;28;70170;-47
2023/06/22 10:45:27;;;;;;;7.60;5.15;;;;;;;35.38;57.39;100462.41;5057316;28;66093;-47
2023/06/22 10:47:59;;;;;;;5.90;5.30;;;;;;;35.41;57.04;100461.94;5040075;28;69858;-46
2023/06/22 10:50:30;;;;;;;6.97;5.45;;;;;;;35.36;57.49;100476.34;5058846;28;66047;-46
2023/06/22 10:53:01;;;;;;;11.60;5.47;;;;;;;35.39;57.02;100494.09;5058482;28;69410;-46
2023/06/22 10:55:33;;;;;;;5.22;4.72;;;;;;;35.41;56.97;100507.44;5059054;28;66923;-47
2023/06/22 10:58:25;;;;;;;5.65;5.00;;;;;;;35.38;57.42;100500.59;5055243;28;70341;-45
2023/06/22 11:00:56;;;;;;;9.48;5.07;;;;;;;35.33;57.42;100497.84;5061656;28;65302;-47
2023/06/22 11:03:27;;;;;;;5.30;4.82;;;;;;;35.40;56.84;100508.53;5061152;28;69903;-44
2023/06/22 11:05:59;;;;;;;6.22;5.35;;;;;;;35.36;56.61;100514.50;5062234;28;66134;-46
2023/06/22 11:08:30;;;;;;;5.22;4.80;;;;;;;35.38;56.80;100521.59;5059023;28;70124;-48
2023/06/22 11:11:01;;;;;;;7.25;5.05;;;;;;;35.35;57.71;100522.94;5044440;28;65964;-46
2023/06/22 11:13:32;;;;;;;7.65;5.32;;;;;;;35.27;57.55;100520.69;5062781;28;70899;-43
2023/06/22 11:16:04;;;;;;;5.97;5.03;;;;;;;35.32;57.64;100537.91;5063042;28;65374;-44
2023/06/22 11:18:35;;;;;;;5.07;4.45;;;;;;;35.29;57.49;100526.72;5059905;28;69958;-44
2023/06/22 11:21:07;;;;;;;6.85;4.97;;;;;;;35.16;57.74;100491.69;5062733;28;66355;-45
2023/06/22 11:23:38;;;;;;;5.82;5.10;;;;;;;35.24;57.70;100522.03;5061448;28;69974;-46
2023/06/22 11:26:09;;;;;;;5.82;5.22;;;;;;;35.34;57.86;100526.75;5060962;28;66013;-47
2023/06/22 11:28:40;;;;;;;5.97;5.47;;;;;;;35.25;57.68;100522.88;5061067;28;69940;-47
2023/06/22 11:31:12;;;;;;;6.18;5.68;;;;;;;35.33;57.33;100536.84;5066233;28;66268;-46
2023/06/22 11:33:47;;;;;;;5.88;5.38;;;;;;;35.19;58.04;100535.63;5066331;28;70630;-45
2023/06/22 11:36:19;;;;;;;6.05;5.28;;;;;;;35.25;58.02;100553.69;5064716;28;66532;-46
2023/06/22 11:38:51;;;;;;;5.65;5.22;;;;;;;35.32;58.23;100569.81;5056393;28;70197;-46
2023/06/22 11:41:22;;;;;;;5.90;5.35;;;;;;;35.28;57.83;100560.53;5060856;28;66021;-45
2023/06/22 11:43:53;;;;;;;;;;;;;;;35.00;59.24;100556.94;5057668;28;70236;-46
2023/06/22 11:46:24;;;;;;;6.35;5.75;;;;;;;35.27;58.63;100569.75;5062438;28;66802;-47
2023/06/22 11:48:56;;;;;;;9.15;5.68;;;;;;;35.27;58.03;100572.50;5055837;28;69783;-45
2023/06/22 11:51:27;;;;;;;6.38;5.78;;;;;;;35.18;58.63;100554.97;5062251;28;65599;-46
2023/06/22 11:53:58;;;;;;;7.40;5.88;;;;;;;35.25;58.22;100572.75;5051535;28;71261;-46